createdAt,value
2023-03-29T00:00:17.085Z,7.90
2023-03-29T00:02:48.546Z,7.90
2023-03-29T00:05:18.376Z,7.90
2023-03-29T00:07:45.535Z,7.90
2023-03-29T00:10:13.174Z,7.90
2023-03-29T00:12:41.610Z,7.90
2023-03-29T00:15:09.086Z,7.90
2023-03-29T00:17:36.168Z,7.90
2023-03-29T00:20:06.229Z,7.90
2023-03-29T00:22:33.116Z,7.90
2023-03-29T00:24:59.871Z,7.90
2023-03-29T00:27:26.660Z,7.90
2023-03-29T00:29:53.611Z,7.90
2023-03-29T00:32:20.579Z,7.90
2023-03-29T00:34:50.713Z,8.00
2023-03-29T00:37:20.607Z,8.00
2023-03-29T00:39:48.238Z,8.00
2023-03-29T00:42:17.649Z,8.00
2023-03-29T00:44:56.760Z,8.00
2023-03-29T00:47:38.193Z,8.00
2023-03-29T00:50:18.455Z,8.00
2023-03-29T00:52:57.054Z,7.90
2023-03-29T00:55:26.415Z,8.00
2023-03-29T00:57:56.317Z,8.00
2023-03-29T01:00:27.931Z,8.00
2023-03-29T01:02:59.758Z,8.00
2023-03-29T01:05:33.220Z,8.00
2023-03-29T01:08:06.694Z,8.00
2023-03-29T01:10:42.707Z,8.00
2023-03-29T01:13:16.210Z,8.00
2023-03-29T01:15:45.964Z,8.00
2023-03-29T01:18:13.998Z,8.10
2023-03-29T01:20:42.336Z,8.10
2023-03-29T01:23:44.012Z,8.00
2023-03-29T01:26:33.356Z,8.10
2023-03-29T01:29:11.496Z,8.10
2023-03-29T01:31:42.657Z,8.10
2023-03-29T01:34:37.267Z,8.10
2023-03-29T01:37:15.690Z,8.20
2023-03-29T01:39:42.732Z,8.20
2023-03-29T01:42:12.859Z,8.20
2023-03-29T01:44:42.703Z,8.20
2023-03-29T01:47:19.840Z,8.20
2023-03-29T01:49:59.588Z,8.20
2023-03-29T01:52:34.451Z,8.20
2023-03-29T01:55:08.818Z,8.20
2023-03-29T01:57:38.826Z,8.20
2023-03-29T02:00:10.840Z,8.30
2023-03-29T02:02:41.776Z,8.30
2023-03-29T02:05:10.319Z,8.30
2023-03-29T02:07:38.575Z,8.30
2023-03-29T02:10:08.258Z,8.30
2023-03-29T02:12:36.048Z,8.30
2023-03-29T02:15:07.133Z,8.30
2023-03-29T02:17:34.591Z,8.30
2023-03-29T02:20:22.637Z,8.30
2023-03-29T02:23:14.522Z,8.30
2023-03-29T02:25:42.926Z,8.40
2023-03-29T02:28:09.838Z,8.40
2023-03-29T02:31:07.937Z,8.40
2023-03-29T02:33:58.833Z,8.40
2023-03-29T02:36:29.685Z,8.40
2023-03-29T02:38:59.051Z,8.50
2023-03-29T02:41:27.050Z,8.50
2023-03-29T02:43:56.702Z,8.50
2023-03-29T02:46:24.513Z,8.50
2023-03-29T02:48:53.167Z,8.50
2023-03-29T02:51:24.425Z,8.50
2023-03-29T02:53:59.264Z,8.50
2023-03-29T02:56:26.167Z,8.50
2023-03-29T02:58:52.981Z,8.50
2023-03-29T03:01:20.608Z,8.50
2023-03-29T03:03:50.792Z,8.50
2023-03-29T03:06:18.572Z,8.50
2023-03-29T03:08:45.704Z,8.60
2023-03-29T03:11:12.507Z,8.60
2023-03-29T03:13:39.658Z,8.50
2023-03-29T03:16:08.109Z,8.50
2023-03-29T03:18:35.894Z,8.60
2023-03-29T03:21:04.657Z,8.50
2023-03-29T03:23:32.394Z,8.60
2023-03-29T03:25:59.364Z,8.60
2023-03-29T03:28:27.334Z,8.60
2023-03-29T03:30:54.914Z,8.60
2023-03-29T03:33:57.080Z,8.60
2023-03-29T03:36:47.363Z,8.60
2023-03-29T03:39:14.516Z,8.60
2023-03-29T03:41:42.855Z,8.60
2023-03-29T03:44:09.764Z,8.60
2023-03-29T03:46:36.985Z,8.60
2023-03-29T03:49:05.654Z,8.60
2023-03-29T03:51:37.652Z,8.60
2023-03-29T03:54:04.937Z,8.70
2023-03-29T03:56:31.865Z,8.70
2023-03-29T03:59:05.374Z,8.60
2023-03-29T04:01:48.792Z,8.60
2023-03-29T04:04:19.986Z,8.60
2023-03-29T04:07:03.745Z,8.70
2023-03-29T04:09:37.757Z,8.70
2023-03-29T04:12:30.626Z,8.70
2023-03-29T04:14:57.781Z,8.70
2023-03-29T04:17:27.338Z,8.70
2023-03-29T04:20:13.545Z,8.70
2023-03-29T04:22:41.893Z,8.80
2023-03-29T04:25:11.800Z,8.70
2023-03-29T04:27:39.158Z,8.80
2023-03-29T04:30:14.264Z,8.70
2023-03-29T04:33:05.546Z,8.80
2023-03-29T04:35:33.734Z,8.80
2023-03-29T04:38:01.123Z,8.80
2023-03-29T04:40:29.088Z,8.70
2023-03-29T04:43:12.408Z,8.70
2023-03-29T04:45:46.666Z,8.80
2023-03-29T04:48:33.825Z,8.80
2023-03-29T04:51:00.839Z,8.80
2023-03-29T04:53:27.995Z,8.80
2023-03-29T04:55:55.626Z,8.80
2023-03-29T04:58:42.349Z,8.80
2023-03-29T05:01:09.211Z,8.80
2023-03-29T05:03:40.633Z,8.80
2023-03-29T05:06:18.094Z,8.90
2023-03-29T05:08:45.274Z,8.90
2023-03-29T05:11:26.466Z,8.90
2023-03-29T05:13:55.655Z,8.90
2023-03-29T05:16:23.196Z,8.90
2023-03-29T05:18:50.026Z,8.90
2023-03-29T05:21:18.468Z,8.90
2023-03-29T05:23:46.193Z,8.90
2023-03-29T05:26:32.009Z,8.90
2023-03-29T05:28:59.085Z,8.90
2023-03-29T05:31:26.567Z,8.90
2023-03-29T05:33:55.007Z,8.90
2023-03-29T05:36:22.235Z,8.90
2023-03-29T05:38:50.247Z,8.90
2023-03-29T05:41:19.241Z,8.90
2023-03-29T05:44:14.947Z,8.90
2023-03-29T05:46:44.095Z,9.00
2023-03-29T05:49:15.066Z,9.00
2023-03-29T05:51:56.964Z,9.00
2023-03-29T05:54:24.777Z,9.00
2023-03-29T05:56:52.204Z,9.00
2023-03-29T05:59:19.847Z,9.00
2023-03-29T06:01:48.552Z,9.00
2023-03-29T06:04:20.810Z,9.00
2023-03-29T06:07:25.829Z,9.00
2023-03-29T06:10:12.159Z,9.00
2023-03-29T06:12:42.961Z,9.00
2023-03-29T06:15:10.575Z,9.10
2023-03-29T06:17:45.844Z,9.10
2023-03-29T06:20:13.459Z,9.10
2023-03-29T06:22:43.898Z,9.10
2023-03-29T06:25:12.302Z,9.10
2023-03-29T06:27:39.924Z,9.10
2023-03-29T06:30:08.119Z,9.20
2023-03-29T06:32:36.174Z,9.20
2023-03-29T06:35:09.007Z,9.20
2023-03-29T06:37:49.416Z,9.30
2023-03-29T06:40:21.615Z,9.30
2023-03-29T06:42:48.956Z,9.40
2023-03-29T06:45:36.132Z,9.40
2023-03-29T06:48:10.734Z,9.40
2023-03-29T06:50:37.659Z,9.50
2023-03-29T06:53:10.288Z,9.50
2023-03-29T06:55:39.086Z,9.50
2023-03-29T06:58:26.569Z,9.60
2023-03-29T07:01:00.833Z,9.60
2023-03-29T07:03:46.652Z,9.60
2023-03-29T07:06:15.532Z,9.60
2023-03-29T07:08:46.870Z,9.70
